McNabs Island, Nova Scotia

Past 24 Hour Conditions

This table is a summary of hourly weather conditions for the past 24 hours. This summary includes the following parameters: temperature, humidity, dew point, wind speed and direction, air pressure, visibility and/or wind chill and humidex.
Date / Time
(ADT)
Conditions Temp (°F) Humidity (%) Dew Point (°F) Wind (mph) Pressure (inches) Visibility (miles)
16 April 2014
5:00 N/A 49 91 46 SSE 22 gust 30 29.8 N/A
4:00 N/A 49 91 46 SSE 24 gust 30 29.8 N/A
3:00 N/A 49 90 46 SSE 20 gust 29 29.9 N/A
2:00 N/A 49 93 47 SSE 22 gust 30 29.9 N/A
1:00 N/A 49 94 48 SSE 25 gust 31 29.9 N/A
00:00 N/A 48 95 47 SSE 19 gust 27 29.9 N/A
15 April 2014
23:00 N/A 48 94 46 SSE 18 gust 24 29.9 N/A
22:00 N/A 48 95 47 SSE 20 29.9 N/A
21:00 N/A 48 94 47 SSE 20 30.0 N/A
20:00 N/A 51 94 50 S 14 gust 24 30.0 N/A
19:00 N/A 48 93 46 SSE 16 gust 28 30.0 N/A
18:00 N/A 52 94 50 S 16 30.0 N/A
17:00 N/A 52 89 49 SSE 16 gust 22 30.0 N/A
16:00 N/A 54 80 48 S 9 30.0 N/A
15:00 N/A 54 79 48 SSE 13 gust 19 30.0 N/A
14:00 N/A 58   75 50 S 13 gust 21 30.0 N/A
13:00 N/A 57 69 47 SSW 10 gust 25 30.1 N/A
12:00 N/A 56 78 49 SSW 13 gust 18 30.1 N/A
11:00 N/A 54 85 49 S 15 gust 21 30.1 N/A
10:00 N/A 51 91 48 SSW 13 gust 23 30.1 N/A
9:00 N/A 49 89 46 SSW 10 gust 18 30.1 N/A
8:00 N/A 46   92 44 SSW 6 30.1 N/A
7:00 N/A 50 92 48 SW 12 gust 19 30.1 N/A
6:00 N/A 48 93 46 SW 8 30.1 N/A
5:00 N/A 48 93 46 SSW 9 gust 17 30.1 N/A
N/A
Not available
 ↑ 
Highest temperature
 ↓ 
Lowest temperature

If you require additional historical weather information, please visit Climate Data Online.